Time;durP1;ratioP1;P1;durP2;ratioP2;P2;SDS_P1;SDS_P2;PMS_P1;PMS_P2;Temp;Humidity;BMP_temperature;BMP_pressure;BME280_temperature;BME280_humidity;BME280_pressure;Samples;Min_cycle;Max_cycle;Signal;HPM_P1;HPM_P2
2022/02/11 00:07:06;;;;;;;5.28;2.90;;;;;;;5.29;80.57;101210.75;5052337;28;20042;-25
2022/02/11 00:09:31;;;;;;;2.80;2.42;;;;;;;5.24;80.76;101205.41;5075392;28;20024;-25
2022/02/11 00:11:57;;;;;;;3.08;2.10;;;;;;;5.28;80.89;101210.72;5082173;28;20031;-25
2022/02/11 00:14:24;;;;;;;3.00;2.35;;;;;;;5.26;80.80;101211.56;5058176;28;20027;-23
2022/02/11 00:16:50;;;;;;;1.70;1.58;;;;;;;5.24;80.52;101201.94;5075427;28;20022;-23
2022/02/11 00:19:15;;;;;;;1.90;1.65;;;;;;;5.23;80.68;101201.03;5076217;28;20023;-25
2022/02/11 00:21:41;;;;;;;1.98;1.67;;;;;;;5.19;80.69;101201.81;5075965;28;20093;-24
2022/02/11 00:24:06;;;;;;;2.95;1.80;;;;;;;5.19;81.02;101199.19;5074750;28;20032;-24
2022/02/11 00:26:38;;;;;;;1.50;1.40;;;;;;;5.19;80.64;101209.66;5074250;28;20036;-21
2022/02/11 00:34:15;;;;;;;1.13;1.02;;;;;;;5.15;80.38;101213.06;5078770;28;20036;-25
2022/02/11 00:36:52;;;;;;;2.85;1.45;;;;;;;5.12;80.56;101202.53;5079483;28;20028;-25
2022/02/11 00:43:07;;;;;;;3.97;1.63;;;;;;;5.09;80.40;101192.00;5076456;28;20046;-24
2022/02/11 01:06:18;;;;;;;1.55;1.45;;;;;;;4.93;81.01;101196.88;5082748;28;20106;-24
2022/02/11 01:08:43;;;;;;;2.85;1.58;;;;;;;4.92;80.78;101195.13;5080454;28;20499;-24
2022/02/11 01:11:15;;;;;;;1.00;1.00;;;;;;;4.91;80.62;101193.38;5076650;28;20039;-23
2022/02/11 01:13:40;;;;;;;1.40;1.30;;;;;;;4.87;80.96;101189.78;5082270;28;20028;-25
2022/02/11 01:16:11;;;;;;;1.20;1.05;;;;;;;4.88;80.41;101203.75;5076923;28;20370;-24
2022/02/11 01:18:38;;;;;;;3.63;1.25;;;;;;;4.86;80.31;101200.19;5078569;28;20030;-22
2022/02/11 01:21:09;;;;;;;2.33;1.30;;;;;;;4.85;80.54;101193.22;5080011;28;20485;-24
2022/02/11 01:23:50;;;;;;;3.15;1.40;;;;;;;4.84;80.54;101194.06;5080597;28;20028;-24
2022/02/11 01:27:15;;;;;;;;;;;;;;;4.82;80.60;101195.75;5079957;28;20020;-22
2022/02/11 01:29:33;;;;;;;3.28;2.35;;;;;;;4.81;80.81;101186.16;5075964;28;19960;-23
2022/02/11 01:32:01;;;;;;;2.03;1.30;;;;;;;4.78;80.41;101181.75;5081035;28;20375;-24
2022/02/11 01:40:14;;;;;;;1.20;1.10;;;;;;;4.73;80.73;101179.03;5078909;28;20113;-23
2022/02/11 01:43:38;;;;;;;1.65;1.38;;;;;;;4.72;80.83;101185.09;5075193;28;20036;-25
2022/02/11 01:45:53;;;;;;;1.55;1.40;;;;;;;4.70;81.01;101186.78;5078137;28;20040;-23
2022/02/11 01:48:55;;;;;;;1.30;1.20;;;;;;;4.69;80.59;101181.50;5074129;28;20028;-24
2022/02/11 01:51:43;;;;;;;4.55;2.78;;;;;;;4.67;80.29;101184.09;5075144;28;20065;-23
2022/02/11 01:57:01;;;;;;;1.67;1.48;;;;;;;4.64;81.13;101186.66;5083905;28;20178;-24
2022/02/11 02:24:12;;;;;;;2.13;1.92;;;;;;;4.41;80.85;101159.97;5079968;28;20460;-24
2022/02/11 02:50:20;;;;;;;2.25;1.80;;;;;;;4.28;80.55;101153.56;5077528;28;20023;-23
2022/02/11 02:58:44;;;;;;;2.40;1.77;;;;;;;4.20;80.47;101141.19;5054281;28;20494;-21
2022/02/11 03:01:35;;;;;;;1.83;1.55;;;;;;;4.20;80.14;101145.56;5071559;28;20142;-23
2022/02/11 03:56:04;;;;;;;4.43;2.58;;;;;;;3.92;81.05;101161.38;5080118;28;20042;-24
2022/02/11 04:55:02;;;;;;;1.70;1.58;;;;;;;3.63;80.73;101203.22;5073308;28;20097;-23
2022/02/11 05:00:14;;;;;;;5.05;1.83;;;;;;;3.63;80.91;101211.03;5077546;28;20044;-23
2022/02/11 05:02:45;;;;;;;3.85;1.63;;;;;;;3.64;80.70;101211.94;5074734;28;20021;-22
2022/02/11 05:05:11;;;;;;;3.10;1.67;;;;;;;3.61;80.81;101207.53;5068763;28;20428;-23
2022/02/11 05:07:36;;;;;;;3.50;1.40;;;;;;;3.59;80.76;101203.97;5073738;28;20050;-24
2022/02/11 05:10:03;;;;;;;2.38;1.40;;;;;;;3.60;80.94;101208.34;5069806;28;20029;-24
2022/02/11 05:12:28;;;;;;;3.60;1.52;;;;;;;3.57;80.83;101203.06;5073346;28;20362;-21
2022/02/11 05:14:54;;;;;;;2.63;1.77;;;;;;;3.58;80.50;101218.75;5073297;28;20054;-21
2022/02/11 05:17:19;;;;;;;2.92;1.70;;;;;;;3.57;81.05;101210.88;5073091;28;20032;-20
2022/02/11 05:19:44;;;;;;;3.28;1.80;;;;;;;3.54;81.06;101202.97;5073914;28;20020;-22
2022/02/11 05:22:10;;;;;;;3.53;1.58;;;;;;;3.53;80.57;101203.81;5071891;28;20031;-23
2022/02/11 05:24:35;;;;;;;1.83;1.73;;;;;;;3.54;81.05;101216.88;5075487;28;20043;-21
2022/02/11 05:27:00;;;;;;;2.88;2.30;;;;;;;3.52;81.04;101208.13;5072746;28;20027;-24
2022/02/11 05:29:26;;;;;;;4.70;1.80;;;;;;;3.52;81.03;101215.06;5073250;28;20033;-24
2022/02/11 05:31:51;;;;;;;4.57;2.17;;;;;;;3.51;81.15;101211.59;5072731;28;20024;-24
2022/02/11 05:34:17;;;;;;;3.60;1.65;;;;;;;3.51;81.18;101210.69;5073470;28;20055;-23
2022/02/11 05:36:42;;;;;;;4.15;1.75;;;;;;;3.49;80.73;101204.53;5076138;28;20155;-24
2022/02/11 05:39:08;;;;;;;2.42;1.70;;;;;;;3.46;81.09;101190.59;5075911;28;20020;-22
2022/02/11 05:41:33;;;;;;;3.38;2.30;;;;;;;3.46;81.16;101192.31;5073255;28;20529;-23
2022/02/11 05:43:58;;;;;;;4.63;2.53;;;;;;;3.45;81.30;101185.31;5078791;28;20068;-24
2022/02/11 05:46:27;;;;;;;2.85;2.40;;;;;;;3.42;80.66;101175.69;5075705;28;20059;-23
2022/02/11 05:48:53;;;;;;;2.20;2.00;;;;;;;3.44;81.07;101188.78;5075547;28;20028;-24
2022/02/11 05:51:18;;;;;;;3.40;1.98;;;;;;;3.40;81.40;101187.78;5076177;28;20032;-23
2022/02/11 05:53:44;;;;;;;3.72;2.45;;;;;;;3.38;80.97;101184.28;5076858;28;20043;-24
2022/02/11 05:56:09;;;;;;;3.03;2.53;;;;;;;3.38;81.11;101189.50;5075691;28;20028;-24
2022/02/11 05:58:36;;;;;;;3.95;2.33;;;;;;;3.39;80.85;101185.13;5077870;28;20544;-23
2022/02/11 06:01:02;;;;;;;4.47;2.30;;;;;;;3.38;81.26;101204.25;5084078;28;20028;-23
2022/02/11 06:03:27;;;;;;;5.32;2.67;;;;;;;3.35;80.89;101205.03;5079788;28;20039;-24
2022/02/11 06:05:52;;;;;;;3.60;2.53;;;;;;;3.34;81.33;101198.06;5079997;28;20442;-24
2022/02/11 06:08:18;;;;;;;2.88;2.60;;;;;;;3.33;81.11;101198.88;5080407;28;20031;-22
2022/02/11 06:10:43;;;;;;;3.40;2.42;;;;;;;3.32;81.14;101202.34;5077081;28;20028;-24
2022/02/11 06:13:08;;;;;;;3.65;3.00;;;;;;;3.32;81.08;101211.06;5076415;28;20474;-24
2022/02/11 06:15:34;;;;;;;3.75;2.95;;;;;;;3.29;81.20;101210.97;5078236;28;20055;-24
2022/02/11 06:17:59;;;;;;;4.45;3.20;;;;;;;3.27;81.18;101214.38;5078010;28;20036;-23
2022/02/11 06:20:28;;;;;;;3.40;3.05;;;;;;;3.25;81.01;101223.84;5076269;28;20020;-23
2022/02/11 06:22:56;;;;;;;4.07;3.00;;;;;;;3.24;80.94;101233.41;5074502;28;20426;-23
2022/02/11 06:25:22;;;;;;;3.70;3.38;;;;;;;3.23;81.06;101247.25;5073998;28;20371;-23
2022/02/11 06:27:47;;;;;;;3.65;3.35;;;;;;;3.23;81.33;101259.44;5081434;28;20090;-24
2022/02/11 06:30:13;;;;;;;4.13;3.35;;;;;;;3.19;81.60;101259.34;5077746;28;20058;-22
2022/02/11 06:32:38;;;;;;;5.53;4.18;;;;;;;3.16;81.36;101254.03;5076581;28;20094;-24
2022/02/11 06:35:05;;;;;;;5.63;4.00;;;;;;;3.18;81.22;101264.50;5077287;28;20381;-24
2022/02/11 06:37:30;;;;;;;5.32;4.10;;;;;;;3.15;81.44;101262.69;5077657;28;20121;-24
2022/02/11 06:39:55;;;;;;;6.07;4.43;;;;;;;3.16;81.57;101267.06;5077043;28;20502;-24
2022/02/11 06:42:21;;;;;;;6.55;4.20;;;;;;;3.14;81.36;101263.50;5077429;28;20120;-23
2022/02/11 06:44:46;;;;;;;4.95;4.35;;;;;;;3.12;81.13;101259.09;5080418;28;20020;-22
2022/02/11 06:47:11;;;;;;;4.72;4.22;;;;;;;3.11;81.44;101263.44;5081921;28;20115;-24
2022/02/11 06:49:37;;;;;;;5.25;4.75;;;;;;;3.08;81.27;101268.53;5080865;28;20029;-23
2022/02/11 06:52:02;;;;;;;6.05;4.38;;;;;;;3.07;81.67;101264.19;5081977;28;20017;-23
2022/02/11 06:54:28;;;;;;;5.35;4.25;;;;;;;3.06;81.27;101276.31;5080508;28;20028;-22
2022/02/11 06:56:53;;;;;;;4.72;3.50;;;;;;;3.05;81.45;101279.75;5079472;28;20066;-24
2022/02/11 06:59:19;;;;;;;5.15;4.45;;;;;;;3.02;81.20;101277.06;5076685;28;20069;-24
2022/02/11 07:01:44;;;;;;;6.32;4.57;;;;;;;3.03;81.21;101277.94;5078897;28;20103;-22
2022/02/11 07:04:10;;;;;;;4.82;4.07;;;;;;;3.03;81.16;101275.34;5073861;28;20710;-24
2022/02/11 07:06:35;;;;;;;6.20;4.57;;;;;;;3.00;81.12;101283.06;5076276;28;20017;-22
2022/02/11 07:09:00;;;;;;;6.85;3.95;;;;;;;2.99;81.16;101289.09;5077910;28;20062;-24
2022/02/11 07:11:26;;;;;;;5.03;4.10;;;;;;;2.98;81.10;101275.19;5074626;28;20032;-24
2022/02/11 07:13:51;;;;;;;7.43;4.35;;;;;;;2.97;80.80;101276.03;5077912;28;20023;-21
2022/02/11 07:16:16;;;;;;;4.40;3.72;;;;;;;2.93;80.77;101268.94;5079408;28;20098;-23
2022/02/11 07:18:42;;;;;;;5.35;3.85;;;;;;;2.94;80.97;101287.22;5078241;28;20101;-24
2022/02/11 07:21:08;;;;;;;6.00;3.60;;;;;;;2.90;81.01;101285.34;5078392;28;20035;-24
2022/02/11 07:23:34;;;;;;;6.53;4.22;;;;;;;2.90;80.88;101290.56;5076866;28;20389;-23
2022/02/11 07:25:59;;;;;;;4.93;4.32;;;;;;;2.87;81.02;101284.38;5080215;28;20131;-24
2022/02/11 07:28:25;;;;;;;4.32;3.78;;;;;;;2.85;80.75;101286.03;5079194;28;20122;-20
2022/02/11 07:30:51;;;;;;;6.43;3.78;;;;;;;2.83;80.87;101288.59;5071493;28;20043;-25
2022/02/11 07:33:17;;;;;;;6.13;4.10;;;;;;;2.82;80.84;101287.72;5079844;28;20032;-24
2022/02/11 07:35:44;;;;;;;5.15;4.28;;;;;;;2.83;80.83;101296.41;5068202;28;20054;-24
2022/02/11 07:38:10;;;;;;;3.75;3.35;;;;;;;2.81;81.05;101292.88;5076575;28;20097;-24
2022/02/11 07:40:38;;;;;;;6.95;3.63;;;;;;;2.80;81.23;101288.53;5080854;28;20040;-23
2022/02/11 07:43:03;;;;;;;5.10;3.88;;;;;;;2.76;81.11;101281.41;5078160;28;20125;-19
2022/02/11 07:45:30;;;;;;;5.90;3.95;;;;;;;2.76;81.32;101281.41;5076283;28;20490;-22
2022/02/11 07:47:55;;;;;;;4.53;3.90;;;;;;;2.77;81.30;101293.63;5080205;28;20073;-22
2022/02/11 07:50:21;;;;;;;4.93;3.80;;;;;;;2.76;81.35;101291.81;5075840;28;20031;-23
2022/02/11 07:52:46;;;;;;;6.80;4.05;;;;;;;2.75;81.24;101296.16;5077350;28;20031;-23
2022/02/11 07:55:11;;;;;;;7.43;4.80;;;;;;;2.75;81.62;101296.16;5081041;28;20031;-24
2022/02/11 07:57:37;;;;;;;7.45;4.90;;;;;;;2.73;81.85;101302.16;5076356;28;20020;-24
2022/02/11 08:00:04;;;;;;;5.72;4.68;;;;;;;2.74;81.95;101302.22;5076026;28;20020;-24
2022/02/11 08:02:37;;;;;;;5.97;5.10;;;;;;;2.77;82.06;101301.44;5075969;28;20502;-23
2022/02/11 08:05:06;;;;;;;7.90;4.30;;;;;;;2.78;82.16;101295.38;5078696;28;20456;-24
2022/02/11 08:07:31;;;;;;;10.80;5.63;;;;;;;2.77;81.89;101293.63;5080331;28;20534;-24
2022/02/11 08:09:56;;;;;;;5.95;4.53;;;;;;;2.79;81.63;101300.66;5079000;28;20107;-22
2022/02/11 08:12:22;;;;;;;4.55;4.10;;;;;;;2.79;81.82;101295.44;5076617;28;20025;-24
2022/02/11 08:14:47;;;;;;;6.53;4.65;;;;;;;2.82;82.15;101292.03;5078686;28;20485;-24
2022/02/11 08:17:13;;;;;;;7.30;5.30;;;;;;;2.80;82.42;101298.94;5075394;28;20024;-24
2022/02/11 08:19:38;;;;;;;8.80;4.80;;;;;;;2.84;82.56;101300.81;5075399;28;20111;-24
2022/02/11 08:22:03;;;;;;;7.78;5.03;;;;;;;2.86;83.20;101293.91;5074479;28;20042;-24
2022/02/11 08:24:29;;;;;;;8.90;4.85;;;;;;;2.91;83.16;101300.19;5077324;28;20071;-22
2022/02/11 08:26:54;;;;;;;8.07;5.38;;;;;;;2.94;82.70;101307.19;5078729;28;20509;-22
2022/02/11 08:29:25;;;;;;;6.40;4.70;;;;;;;2.92;82.92;101288.00;5077121;28;20024;-23
2022/02/11 08:31:54;;;;;;;7.63;4.88;;;;;;;2.99;82.38;101312.53;5075753;28;20129;-24
2022/02/11 08:34:21;;;;;;;5.68;4.20;;;;;;;3.00;82.61;101312.59;5079380;28;20059;-22
2022/02/11 08:36:47;;;;;;;5.90;4.15;;;;;;;3.02;82.46;101310.94;5075766;28;20016;-24
2022/02/11 08:39:13;;;;;;;5.10;4.30;;;;;;;3.04;82.29;101304.03;5077293;28;20496;-24
2022/02/11 08:41:38;;;;;;;7.28;5.30;;;;;;;3.05;82.43;101300.63;5077334;28;20035;-23
2022/02/11 08:44:04;;;;;;;7.07;3.97;;;;;;;3.08;82.20;101305.03;5074841;28;20033;-23
2022/02/11 08:46:30;;;;;;;9.35;4.30;;;;;;;3.08;82.28;101305.91;5076295;28;20099;-24
2022/02/11 08:48:55;;;;;;;6.63;5.38;;;;;;;3.09;82.05;101296.38;5076312;28;20453;-24
2022/02/11 08:51:20;;;;;;;7.25;4.55;;;;;;;3.09;81.73;101317.22;5073703;28;20040;-23
2022/02/11 08:53:48;;;;;;;7.63;5.85;;;;;;;3.12;81.89;101311.22;5074841;28;20037;-24
2022/02/11 08:56:14;;;;;;;5.30;4.50;;;;;;;3.14;81.73;101323.47;5074293;28;20023;-23
2022/02/11 08:58:40;;;;;;;6.32;4.32;;;;;;;3.13;81.80;101324.31;5080873;28;20093;-24
2022/02/11 09:01:06;;;;;;;6.90;4.55;;;;;;;3.15;81.60;101320.03;5075174;28;20016;-24
2022/02/11 09:03:31;;;;;;;6.40;4.45;;;;;;;3.15;81.44;101311.31;5076076;28;20031;-23
2022/02/11 09:05:57;;;;;;;6.22;4.80;;;;;;;3.18;81.56;101327.06;5072895;28;20062;-24
2022/02/11 09:08:24;;;;;;;6.55;5.10;;;;;;;3.17;81.13;101315.75;5073531;28;20024;-24
2022/02/11 09:10:51;;;;;;;7.05;4.05;;;;;;;3.16;81.02;101313.97;5071183;28;20561;-24
2022/02/11 09:13:16;;;;;;;7.30;5.88;;;;;;;3.18;80.90;101333.19;5077105;28;20111;-23
2022/02/11 09:15:42;;;;;;;6.53;5.57;;;;;;;3.18;80.97;101332.28;5072831;28;20107;-24
2022/02/11 09:18:07;;;;;;;7.90;4.80;;;;;;;3.18;81.19;101333.19;5078192;28;20024;-23
2022/02/11 09:20:33;;;;;;;7.85;5.20;;;;;;;3.19;81.13;101337.53;5078170;28;20086;-23
2022/02/11 09:22:58;;;;;;;8.48;5.00;;;;;;;3.18;81.20;101334.88;5080020;28;20067;-23
2022/02/11 09:25:23;;;;;;;6.82;5.07;;;;;;;3.21;81.05;101342.81;5078756;28;20264;-23
2022/02/11 09:27:49;;;;;;;7.80;5.68;;;;;;;3.21;81.28;101342.81;5078694;28;20081;-24
2022/02/11 09:30:17;;;;;;;7.38;5.13;;;;;;;3.21;81.31;101337.59;5080378;28;20026;-24
2022/02/11 09:32:44;;;;;;;8.07;5.72;;;;;;;3.23;81.41;101340.25;5081932;28;20031;-24
2022/02/11 09:35:10;;;;;;;10.23;5.40;;;;;;;3.23;81.41;101333.31;5081533;28;20020;-23
2022/02/11 09:37:37;;;;;;;7.30;5.47;;;;;;;3.24;81.40;101347.25;5069796;28;20036;-24
2022/02/11 09:40:04;;;;;;;7.57;5.50;;;;;;;3.25;81.22;101338.56;5079225;28;20024;-22
2022/02/11 09:42:30;;;;;;;8.70;5.88;;;;;;;3.26;81.43;101345.53;5078234;28;20097;-24
2022/02/11 09:44:56;;;;;;;9.10;6.22;;;;;;;3.29;81.17;101353.47;5078896;28;20051;-23
2022/02/11 09:47:21;;;;;;;9.82;5.93;;;;;;;3.27;81.69;101334.31;5078541;28;20033;-24
2022/02/11 09:49:47;;;;;;;6.65;5.57;;;;;;;3.31;81.36;101338.78;5075270;28;20034;-24
2022/02/11 09:52:14;;;;;;;11.02;5.70;;;;;;;3.31;81.46;101344.00;5075015;28;20044;-24
2022/02/11 09:54:40;;;;;;;7.78;5.45;;;;;;;3.34;81.21;101354.53;5080660;28;20032;-24
2022/02/11 09:57:05;;;;;;;6.75;5.30;;;;;;;3.34;80.99;101338.88;5078180;28;20036;-23
2022/02/11 09:59:30;;;;;;;11.25;6.25;;;;;;;3.35;81.76;101356.28;5078573;28;20021;-23
2022/02/11 10:01:56;;;;;;;12.10;6.25;;;;;;;3.37;81.31;101353.72;5077899;28;20286;-24
2022/02/11 10:04:22;;;;;;;9.45;6.68;;;;;;;3.39;81.54;101352.03;5079996;28;20036;-24
2022/02/11 10:06:50;;;;;;;6.57;5.35;;;;;;;3.39;81.16;101352.94;5077782;28;20059;-23
2022/02/11 10:09:16;;;;;;;6.90;5.65;;;;;;;3.41;81.17;101368.63;5080771;28;20320;-23
2022/02/11 10:11:44;;;;;;;7.93;5.72;;;;;;;3.44;81.71;101359.16;5078799;28;20069;-23
2022/02/11 10:14:25;;;;;;;8.55;5.45;;;;;;;3.47;81.64;101359.28;5074969;28;20028;-24
2022/02/11 10:16:58;;;;;;;8.10;5.95;;;;;;;3.49;81.63;101361.94;5077061;28;20390;-24
2022/02/11 10:19:46;;;;;;;7.50;4.90;;;;;;;3.52;81.25;101368.97;5078489;28;20390;-24
2022/02/11 10:22:16;;;;;;;7.50;5.63;;;;;;;3.54;81.50;101372.53;5076075;28;20025;-23
2022/02/11 10:24:42;;;;;;;6.32;5.20;;;;;;;3.55;82.13;101369.06;5082317;28;20566;-24
2022/02/11 10:27:23;;;;;;;7.28;5.72;;;;;;;3.59;81.19;101373.53;5076823;28;20032;-23
2022/02/11 10:29:58;;;;;;;6.60;5.57;;;;;;;3.60;81.44;101375.28;5078355;28;20028;-21
2022/02/11 10:32:40;;;;;;;7.25;5.65;;;;;;;3.62;81.66;101378.84;5076640;28;20390;-24
2022/02/11 10:35:06;;;;;;;8.55;6.38;;;;;;;3.64;81.69;101378.91;5078100;28;20027;-24
2022/02/11 10:37:32;;;;;;;8.10;5.68;;;;;;;3.65;81.62;101376.34;5074358;28;20467;-24
2022/02/11 10:39:58;;;;;;;7.35;5.70;;;;;;;3.67;81.77;101382.47;5077039;28;20036;-21
2022/02/11 10:42:41;;;;;;;7.63;6.07;;;;;;;3.70;81.39;101379.09;5079226;28;20131;-23
2022/02/11 10:45:31;;;;;;;8.57;5.30;;;;;;;3.72;81.49;101385.25;5080937;28;20540;-24
2022/02/11 10:48:14;;;;;;;8.52;6.00;;;;;;;3.75;81.37;101381.84;5078930;28;20032;-23
2022/02/11 10:50:45;;;;;;;6.38;5.78;;;;;;;3.76;81.60;101378.41;5081076;28;20031;-23
2022/02/11 10:53:10;;;;;;;10.07;5.88;;;;;;;3.78;81.49;101384.53;5078390;28;20028;-24
2022/02/11 10:55:49;;;;;;;7.88;5.75;;;;;;;3.76;81.39;101383.63;5079984;28;20047;-22
2022/02/11 10:58:16;;;;;;;6.10;5.38;;;;;;;3.82;81.47;101389.00;5076631;28;20119;-23
2022/02/11 11:00:42;;;;;;;12.57;6.57;;;;;;;3.85;81.59;101391.72;5078855;28;20023;-23
2022/02/11 11:03:10;;;;;;;6.32;5.28;;;;;;;3.83;81.52;101383.84;5063079;28;20024;-24
2022/02/11 11:05:38;;;;;;;5.78;4.97;;;;;;;3.89;81.16;101390.97;5080871;28;20390;-22
2022/02/11 11:08:04;;;;;;;9.25;5.57;;;;;;;3.91;81.20;101391.91;5077105;28;20123;-23
2022/02/11 11:10:30;;;;;;;9.85;5.80;;;;;;;3.92;81.51;101380.63;5076940;28;20019;-21
2022/02/11 11:12:56;;;;;;;7.38;5.10;;;;;;;3.96;81.56;101386.81;5079238;28;20032;-24
2022/02/11 11:15:23;;;;;;;8.70;5.90;;;;;;;3.96;81.13;101392.94;5066412;28;20154;-23
2022/02/11 11:17:49;;;;;;;5.90;5.15;;;;;;;3.97;81.47;101389.47;5078128;28;20032;-24
2022/02/11 11:20:18;;;;;;;8.02;4.68;;;;;;;4.02;81.32;101399.16;5074625;28;20170;-23
2022/02/11 11:22:50;;;;;;;6.95;5.60;;;;;;;4.03;81.37;101399.22;5077411;28;20031;-24
2022/02/11 11:25:16;;;;;;;5.97;4.90;;;;;;;4.06;81.20;101414.06;5077896;28;20042;-23
2022/02/11 11:27:54;;;;;;;8.20;5.97;;;;;;;4.08;81.52;101399.34;5078597;28;20012;-24
2022/02/11 11:30:29;;;;;;;7.47;6.03;;;;;;;4.09;81.11;101398.50;5057349;28;20031;-21
2022/02/11 11:33:07;;;;;;;7.47;5.00;;;;;;;4.13;81.09;101400.34;5077622;28;20517;-24
2022/02/11 11:35:41;;;;;;;8.63;5.30;;;;;;;4.15;81.25;101396.09;5077766;28;20016;-24
2022/02/11 11:38:23;;;;;;;8.73;5.60;;;;;;;4.16;81.53;101390.00;5071815;28;20039;-23
2022/02/11 11:40:58;;;;;;;6.05;5.45;;;;;;;4.21;81.53;101393.63;5071997;28;20028;-24
2022/02/11 11:43:34;;;;;;;6.38;5.13;;;;;;;4.21;81.84;101392.75;5074911;28;20029;-23
2022/02/11 11:46:16;;;;;;;8.50;5.90;;;;;;;4.25;81.85;101394.63;5073883;28;20121;-23
2022/02/11 11:48:52;;;;;;;7.28;5.10;;;;;;;4.29;81.44;101388.63;5076248;28;20020;-24
2022/02/11 11:51:17;;;;;;;7.13;5.60;;;;;;;4.33;82.17;101398.31;5077995;28;20085;-22
2022/02/11 11:53:42;;;;;;;6.75;5.43;;;;;;;4.36;82.38;101390.59;5077789;28;20486;-24
2022/02/11 11:56:36;;;;;;;7.97;5.63;;;;;;;4.42;82.76;101399.44;5075522;28;20045;-24
2022/02/11 11:59:37;;;;;;;7.55;5.82;;;;;;;4.42;83.09;101384.66;5077518;28;20036;-24
2022/02/11 12:02:10;;;;;;;6.60;4.90;;;;;;;4.47;82.41;101393.47;5080924;28;20115;-24
2022/02/11 12:04:38;;;;;;;7.82;4.90;;;;;;;4.52;82.38;101398.84;5075754;28;20031;-23
2022/02/11 12:07:14;;;;;;;6.68;4.97;;;;;;;4.57;82.20;101401.59;5076305;28;20084;-24
2022/02/11 12:09:49;;;;;;;7.13;4.55;;;;;;;4.59;82.71;101399.88;5080787;28;20043;-24
2022/02/11 12:12:19;;;;;;;7.05;4.72;;;;;;;4.62;82.38;101418.28;5077645;28;20470;-24
2022/02/11 12:14:46;;;;;;;9.05;4.55;;;;;;;4.64;82.73;101419.22;5075845;28;20783;-24
2022/02/11 12:17:15;;;;;;;9.18;4.82;;;;;;;4.66;82.63;101419.22;5078936;28;20039;-21
2022/02/11 12:19:44;;;;;;;8.65;4.53;;;;;;;4.65;82.59;101407.00;5075899;28;20478;-23
2022/02/11 12:22:09;;;;;;;4.80;3.75;;;;;;;4.66;82.69;101417.50;5077380;28;20111;-25
2022/02/11 12:27:33;;;;;;;4.82;3.78;;;;;;;4.63;82.26;101417.41;5074585;28;20034;-22
2022/02/11 12:30:03;;;;;;;6.28;3.47;;;;;;;4.68;82.29;101431.53;5090832;28;20364;-23
2022/02/11 12:32:33;;;;;;;6.17;2.90;;;;;;;4.66;82.65;101422.75;5076148;28;20028;-23
2022/02/11 12:35:01;;;;;;;6.65;3.20;;;;;;;4.67;82.45;101428.88;5075802;28;20486;-24
2022/02/11 12:37:28;;;;;;;3.13;2.83;;;;;;;4.66;82.29;101427.06;5078164;28;20489;-22
2022/02/11 12:40:12;;;;;;;6.10;2.50;;;;;;;4.67;82.77;101434.94;5077028;28;20123;-23
2022/02/11 12:42:39;;;;;;;4.65;2.78;;;;;;;4.65;82.15;101435.75;5073050;28;20028;-23
2022/02/11 12:45:07;;;;;;;3.80;2.28;;;;;;;4.64;82.25;101429.66;5076330;28;20159;-24
2022/02/11 12:47:33;;;;;;;3.13;2.33;;;;;;;4.65;81.80;101439.28;5077904;28;20482;-24
2022/02/11 12:50:00;;;;;;;3.15;1.92;;;;;;;4.62;82.09;101444.41;5075365;28;20433;-23
2022/02/11 12:52:28;;;;;;;4.40;1.80;;;;;;;4.61;82.22;101433.06;5074263;28;20028;-23
2022/02/11 12:55:01;;;;;;;5.15;1.75;;;;;;;4.57;82.43;101436.44;5073428;28;20035;-24
2022/02/11 12:57:27;;;;;;;4.68;1.67;;;;;;;4.61;82.31;101445.25;5077826;28;20040;-23
2022/02/11 12:59:53;;;;;;;2.40;1.55;;;;;;;4.60;82.82;101443.47;5076624;28;20064;-24
2022/02/11 13:02:29;;;;;;;3.20;1.30;;;;;;;4.57;82.57;101443.41;5080335;28;20101;-23
2022/02/11 13:05:15;;;;;;;3.95;1.70;;;;;;;4.57;82.44;101449.50;5075289;28;20027;-24
2022/02/11 13:07:47;;;;;;;4.88;1.67;;;;;;;4.57;82.82;101446.00;5077144;28;20027;-24
2022/02/11 13:10:26;;;;;;;4.57;1.23;;;;;;;4.55;82.86;101456.41;5073917;28;20099;-24
2022/02/11 13:13:00;;;;;;;2.22;1.52;;;;;;;4.55;82.89;101455.53;5075943;28;20038;-23
2022/02/11 13:15:34;;;;;;;3.42;1.75;;;;;;;4.55;83.22;101458.13;5076327;28;20440;-23
2022/02/11 13:18:13;;;;;;;2.20;1.40;;;;;;;4.55;82.65;101459.03;5075765;28;20039;-24
2022/02/11 13:20:43;;;;;;;2.92;1.27;;;;;;;4.54;82.56;101464.22;5072608;28;20060;-20
2022/02/11 13:23:13;;;;;;;2.60;1.13;;;;;;;4.54;83.09;101469.44;5078899;28;20017;-22
2022/02/11 13:25:40;;;;;;;1.60;1.10;;;;;;;4.56;83.14;101472.97;5077216;28;20020;-24
2022/02/11 13:28:07;;;;;;;1.40;1.30;;;;;;;4.51;83.29;101467.63;5076926;28;20027;-24
2022/02/11 13:30:33;;;;;;;2.55;1.20;;;;;;;4.54;82.86;101482.50;5075054;28;20379;-22
2022/02/11 13:33:16;;;;;;;2.17;1.27;;;;;;;4.53;83.62;101475.50;5074903;28;20063;-22
2022/02/11 13:35:42;;;;;;;1.30;1.20;;;;;;;4.53;83.25;101492.06;5071380;28;20061;-24
2022/02/11 13:38:07;;;;;;;2.33;1.40;;;;;;;4.51;83.41;101491.13;5071152;28;20032;-23
2022/02/11 13:40:33;;;;;;;2.13;1.40;;;;;;;4.52;83.37;101498.13;5072400;28;20109;-24
2022/02/11 13:43:06;;;;;;;1.50;1.10;;;;;;;4.53;83.51;101499.88;5075092;28;20079;-23
2022/02/11 13:45:49;;;;;;;2.70;1.30;;;;;;;4.52;83.41;101502.44;5074985;28;20035;-24
2022/02/11 13:48:16;;;;;;;1.95;1.30;;;;;;;4.53;83.42;101509.47;5075092;28;20029;-22
2022/02/11 13:50:57;;;;;;;1.25;1.08;;;;;;;4.54;83.56;101509.53;5072838;28;20020;-23
2022/02/11 13:53:33;;;;;;;2.17;1.05;;;;;;;4.51;83.46;101508.53;5074504;28;20036;-24
2022/02/11 13:55:59;;;;;;;2.83;1.10;;;;;;;4.53;84.01;101517.31;5074973;28;20405;-24
2022/02/11 13:58:25;;;;;;;1.98;1.15;;;;;;;4.55;84.22;101518.22;5079965;28;20039;-24
2022/02/11 14:00:51;;;;;;;3.05;1.10;;;;;;;4.56;84.28;101530.44;5076883;28;20115;-24
2022/02/11 14:03:24;;;;;;;2.20;1.10;;;;;;;4.56;83.79;101535.66;5073987;28;20063;-24
2022/02/11 14:05:51;;;;;;;1.65;1.00;;;;;;;4.54;84.09;101537.38;5074714;28;20027;-23
2022/02/11 14:08:17;;;;;;;1.17;1.08;;;;;;;4.52;84.28;101537.31;5076467;28;20306;-24
2022/02/11 14:10:46;;;;;;;1.88;1.52;;;;;;;4.55;84.43;101544.34;5074752;28;20073;-24
2022/02/11 14:13:12;;;;;;;2.15;1.15;;;;;;;4.57;84.61;101550.53;5075839;28;20028;-24
2022/02/11 14:15:39;;;;;;;1.35;0.88;;;;;;;4.57;84.60;101550.53;5077006;28;20065;-23
2022/02/11 14:18:05;;;;;;;1.27;0.88;;;;;;;4.57;84.12;101558.38;5077887;28;20028;-24
2022/02/11 14:20:31;;;;;;;1.38;0.90;;;;;;;4.59;84.06;101567.13;5074168;28;20448;-23
2022/02/11 14:23:10;;;;;;;1.10;0.90;;;;;;;4.59;83.88;101574.97;5073520;28;20047;-24
2022/02/11 14:25:35;;;;;;;0.80;0.80;;;;;;;4.60;83.93;101579.34;5081584;28;20565;-22
2022/02/11 14:28:01;;;;;;;2.13;0.70;;;;;;;4.56;84.34;101583.59;5073373;28;20115;-24
2022/02/11 14:30:28;;;;;;;1.10;0.80;;;;;;;4.61;84.03;101586.34;5071524;28;20024;-24
2022/02/11 14:32:54;;;;;;;1.55;0.93;;;;;;;4.60;83.60;101589.78;5079612;28;20118;-23
2022/02/11 14:35:20;;;;;;;3.80;0.90;;;;;;;4.59;84.03;101594.16;5072771;28;20390;-24
2022/02/11 14:37:45;;;;;;;1.60;0.90;;;;;;;4.58;84.17;101596.72;5072921;28;20035;-23
2022/02/11 14:40:11;;;;;;;0.70;0.70;;;;;;;4.57;84.00;101611.50;5073674;28;20806;-22
2022/02/11 14:42:36;;;;;;;1.30;0.90;;;;;;;4.60;84.09;101605.47;5078942;28;20028;-23
2022/02/11 14:45:02;;;;;;;0.80;0.80;;;;;;;4.60;83.90;101608.06;5076567;28;20028;-24
2022/02/11 14:47:27;;;;;;;1.10;1.00;;;;;;;4.59;84.00;101615.06;5074505;28;20055;-23
2022/02/11 14:49:53;;;;;;;1.33;0.73;;;;;;;4.60;84.33;101619.44;5073963;28;20035;-24
2022/02/11 14:52:19;;;;;;;0.90;0.80;;;;;;;4.60;83.75;101622.03;5070000;28;20025;-24
2022/02/11 14:54:45;;;;;;;2.08;0.90;;;;;;;4.60;83.41;101629.88;5072146;28;20490;-23
2022/02/11 14:57:10;;;;;;;0.80;0.80;;;;;;;4.60;83.49;101624.66;5079471;28;20031;-24
2022/02/11 14:59:36;;;;;;;0.88;0.80;;;;;;;4.60;83.27;101627.28;5077461;28;20040;-24
2022/02/11 15:02:02;;;;;;;1.40;0.63;;;;;;;4.59;83.45;101638.56;5076131;28;20024;-24
2022/02/11 15:04:28;;;;;;;0.80;0.80;;;;;;;4.59;83.09;101635.97;5078948;28;20140;-22
2022/02/11 15:06:53;;;;;;;0.98;0.85;;;;;;;4.58;84.02;101659.41;5079562;28;20028;-23
2022/02/11 15:09:20;;;;;;;0.70;0.70;;;;;;;4.59;83.26;101654.25;5076347;28;20463;-23
2022/02/11 15:11:45;;;;;;;0.60;0.60;;;;;;;4.55;83.41;101657.59;5070897;28;20028;-23
2022/02/11 15:14:11;;;;;;;0.70;0.70;;;;;;;4.58;83.53;101668.16;5079189;28;20028;-22